createdAt,value
2024-02-02T00:02:11.456Z,8.32
2024-02-02T00:04:42.248Z,8.10
2024-02-02T00:07:11.969Z,6.20
2024-02-02T00:10:00.486Z,8.13
2024-02-02T00:12:30.499Z,7.78
2024-02-02T00:15:00.271Z,7.28
2024-02-02T00:17:31.758Z,8.02
2024-02-02T00:20:20.951Z,7.78
2024-02-02T00:22:51.293Z,8.40
2024-02-02T00:25:40.547Z,7.20
2024-02-02T00:28:28.259Z,7.88
2024-02-02T00:30:57.637Z,7.10
2024-02-02T00:33:27.749Z,7.13
2024-02-02T00:36:17.581Z,7.60
2024-02-02T00:38:47.358Z,6.55
2024-02-02T00:41:16.890Z,5.22
2024-02-02T00:43:46.576Z,7.10
2024-02-02T00:46:34.276Z,6.72
2024-02-02T00:49:24.883Z,6.22
2024-02-02T00:51:55.779Z,6.43
2024-02-02T00:54:43.496Z,5.00
2024-02-02T00:57:14.278Z,6.88
2024-02-02T00:59:44.237Z,5.88
2024-02-02T01:02:32.377Z,5.88
2024-02-02T01:05:20.256Z,6.13
2024-02-02T01:07:51.321Z,5.78
2024-02-02T01:10:20.696Z,7.45
2024-02-02T01:12:50.259Z,6.32
2024-02-02T01:15:19.847Z,5.30
2024-02-02T01:17:49.633Z,4.57
2024-02-02T01:20:19.598Z,5.43
2024-02-02T01:23:08.836Z,5.35
2024-02-02T01:25:56.543Z,5.72
2024-02-02T01:28:26.223Z,5.30
2024-02-02T01:31:13.864Z,5.20
2024-02-02T01:33:43.647Z,5.95
2024-02-02T01:36:13.603Z,5.40
2024-02-02T01:38:45.266Z,5.18
2024-02-02T01:41:33.390Z,6.10
2024-02-02T01:44:21.452Z,5.72
2024-02-02T01:47:10.169Z,4.65
2024-02-02T01:49:59.119Z,5.20
2024-02-02T01:52:29.214Z,4.65
2024-02-02T01:55:18.936Z,5.00
2024-02-02T01:57:48.445Z,5.18
2024-02-02T02:00:18.490Z,6.32
2024-02-02T02:03:06.958Z,5.53
2024-02-02T02:05:56.142Z,5.60
2024-02-02T02:08:44.300Z,5.60
2024-02-02T02:11:34.258Z,5.22
2024-02-02T02:14:04.440Z,5.53
2024-02-02T02:16:33.952Z,5.75
2024-02-02T02:19:21.962Z,5.60
2024-02-02T02:22:11.055Z,5.05
2024-02-02T02:24:41.143Z,5.18
2024-02-02T02:27:28.816Z,5.15
2024-02-02T02:30:16.628Z,5.03
2024-02-02T02:32:46.494Z,4.90
2024-02-02T02:35:34.431Z,4.95
2024-02-02T02:38:05.559Z,4.35
2024-02-02T02:40:35.487Z,5.32
2024-02-02T02:43:05.137Z,4.70
2024-02-02T02:45:35.148Z,4.80
2024-02-02T02:48:23.199Z,5.65
2024-02-02T02:51:11.311Z,4.60
2024-02-02T02:53:41.859Z,5.32
2024-02-02T02:56:29.615Z,4.80
2024-02-02T02:58:59.368Z,4.82
2024-02-02T03:01:47.025Z,4.97
2024-02-02T03:04:16.585Z,4.85
2024-02-02T03:07:06.379Z,4.13
2024-02-02T03:09:38.384Z,4.97
2024-02-02T03:12:26.740Z,4.68
2024-02-02T03:14:56.103Z,4.75
2024-02-02T03:17:44.389Z,4.75
2024-02-02T03:20:32.229Z,3.88
2024-02-02T03:23:01.870Z,5.00
2024-02-02T03:25:51.507Z,5.05
2024-02-02T03:28:21.313Z,4.15
2024-02-02T03:31:09.750Z,6.03
2024-02-02T03:33:58.996Z,4.18
2024-02-02T03:36:28.694Z,4.20
2024-02-02T03:39:17.215Z,3.85
2024-02-02T03:42:07.114Z,4.40
2024-02-02T03:44:35.801Z,4.22
2024-02-02T03:47:05.725Z,3.80
2024-02-02T03:49:35.612Z,3.83
2024-02-02T03:52:25.284Z,4.13
2024-02-02T03:54:55.111Z,4.13
2024-02-02T03:57:26.141Z,4.13
2024-02-02T03:59:55.960Z,2.90
2024-02-02T04:02:46.791Z,3.22
2024-02-02T04:05:17.253Z,3.78
2024-02-02T04:07:46.689Z,3.72
2024-02-02T04:10:35.268Z,3.60
2024-02-02T04:13:06.400Z,3.50
2024-02-02T04:15:36.662Z,4.00
2024-02-02T04:18:07.785Z,4.45
2024-02-02T04:20:37.946Z,3.40
2024-02-02T04:23:07.680Z,3.38
2024-02-02T04:25:37.164Z,3.90
2024-02-02T04:28:09.784Z,3.70
2024-02-02T04:30:58.160Z,3.97
2024-02-02T04:33:27.983Z,3.17
2024-02-02T04:35:57.753Z,3.05
2024-02-02T04:38:46.727Z,3.15
2024-02-02T04:41:35.778Z,3.00
2024-02-02T04:44:25.811Z,3.08
2024-02-02T04:47:13.855Z,3.17
2024-02-02T04:50:01.796Z,2.65
2024-02-02T04:52:32.176Z,2.97
2024-02-02T04:55:02.776Z,2.63
2024-02-02T04:57:32.717Z,2.70
2024-02-02T05:00:22.302Z,3.65
2024-02-02T05:03:10.704Z,2.97
2024-02-02T05:05:58.985Z,2.75
2024-02-02T05:08:29.236Z,2.30
2024-02-02T05:11:02.503Z,2.30
2024-02-02T05:13:32.642Z,2.30
2024-02-02T05:16:03.667Z,1.98
2024-02-02T05:18:35.184Z,1.73
2024-02-02T05:21:05.076Z,2.40
2024-02-02T05:23:36.328Z,2.60
2024-02-02T05:26:07.337Z,2.03
2024-02-02T05:28:55.682Z,2.80
2024-02-02T05:31:47.544Z,1.98
2024-02-02T05:34:36.256Z,2.22
2024-02-02T05:37:06.371Z,2.00
2024-02-02T05:39:36.327Z,2.83
2024-02-02T05:42:24.431Z,2.53
2024-02-02T05:45:13.003Z,3.17
2024-02-02T05:48:02.855Z,2.38
2024-02-02T05:50:51.303Z,2.22
2024-02-02T05:53:21.202Z,1.83
2024-02-02T05:55:50.502Z,2.05
2024-02-02T05:58:38.771Z,2.75
2024-02-02T06:01:08.866Z,2.10
2024-02-02T06:03:40.464Z,2.25
2024-02-02T06:06:10.304Z,2.20
2024-02-02T06:08:40.246Z,1.77
2024-02-02T06:11:10.425Z,2.00
2024-02-02T06:13:40.199Z,2.13
2024-02-02T06:16:28.865Z,2.10
2024-02-02T06:19:18.486Z,2.65
2024-02-02T06:22:06.842Z,2.38
2024-02-02T06:24:36.315Z,2.72
2024-02-02T06:27:26.582Z,2.22
2024-02-02T06:29:57.065Z,2.50
2024-02-02T06:32:26.774Z,2.45
2024-02-02T06:35:01.541Z,2.67
2024-02-02T06:37:32.387Z,2.40
2024-02-02T06:40:09.991Z,2.90
2024-02-02T06:42:40.319Z,2.75
2024-02-02T06:45:10.526Z,2.53
2024-02-02T06:47:40.507Z,1.95
2024-02-02T06:50:14.045Z,2.35
2024-02-02T06:52:44.830Z,3.63
2024-02-02T06:55:33.387Z,2.03
2024-02-02T06:58:39.950Z,2.72
2024-02-02T07:01:10.188Z,2.40
2024-02-02T07:03:40.495Z,2.30
2024-02-02T07:06:11.950Z,2.40
2024-02-02T07:09:05.592Z,3.15
2024-02-02T07:11:57.819Z,2.72
2024-02-02T07:14:52.688Z,2.78
2024-02-02T07:17:34.305Z,2.63
2024-02-02T07:20:10.178Z,2.50
2024-02-02T07:22:42.337Z,2.72
2024-02-02T07:25:34.273Z,2.33
2024-02-02T07:28:33.497Z,2.28
2024-02-02T07:31:03.420Z,3.10
2024-02-02T07:33:54.444Z,2.78
2024-02-02T07:36:33.517Z,3.23
2024-02-02T07:39:29.218Z,3.67
2024-02-02T07:42:17.754Z,2.90
2024-02-02T07:44:48.098Z,3.00
2024-02-02T07:47:17.866Z,2.75
2024-02-02T07:49:47.550Z,3.20
2024-02-02T07:52:17.277Z,2.90
2024-02-02T07:55:07.159Z,3.33
2024-02-02T07:57:55.460Z,2.35
2024-02-02T08:00:25.419Z,2.88
2024-02-02T08:02:55.494Z,2.97
2024-02-02T08:05:43.989Z,2.40
2024-02-02T08:08:34.436Z,1.88
2024-02-02T08:11:05.561Z,2.40
2024-02-02T08:13:38.739Z,2.45
2024-02-02T08:16:09.919Z,2.50
2024-02-02T08:18:40.691Z,2.28
2024-02-02T08:21:29.480Z,3.30
2024-02-02T08:24:18.167Z,1.98
2024-02-02T08:26:49.736Z,2.22
2024-02-02T08:29:19.557Z,1.90
2024-02-02T08:31:49.280Z,2.45
2024-02-02T08:34:19.217Z,2.63
2024-02-02T08:37:07.711Z,2.50
2024-02-02T08:39:58.042Z,2.55
2024-02-02T08:42:47.650Z,2.13
2024-02-02T08:45:57.616Z,2.50
2024-02-02T08:48:37.193Z,1.73
2024-02-02T08:51:53.470Z,1.67
2024-02-02T08:54:35.682Z,2.72
2024-02-02T08:57:35.841Z,2.03
2024-02-02T09:00:18.458Z,3.13
2024-02-02T09:03:38.482Z,2.30
2024-02-02T09:06:16.067Z,2.67
2024-02-02T09:08:45.879Z,1.70
2024-02-02T09:11:22.579Z,1.73
2024-02-02T09:14:17.002Z,2.13
2024-02-02T09:17:11.345Z,1.75
2024-02-02T09:19:43.516Z,1.55
2024-02-02T09:22:17.434Z,2.10
2024-02-02T09:24:49.268Z,2.13
2024-02-02T09:27:33.529Z,1.40
2024-02-02T09:30:26.420Z,1.60
2024-02-02T09:33:41.910Z,1.90
2024-02-02T09:36:13.337Z,2.10
2024-02-02T09:38:56.973Z,1.42
2024-02-02T09:41:55.118Z,2.20
2024-02-02T09:44:48.423Z,1.30
2024-02-02T09:47:47.863Z,1.92
2024-02-02T09:50:50.598Z,2.55
2024-02-02T09:53:44.617Z,1.65
2024-02-02T09:56:24.941Z,2.78
2024-02-02T09:59:01.841Z,1.50
2024-02-02T10:02:03.947Z,1.85
2024-02-02T10:05:02.295Z,1.98
2024-02-02T10:08:04.975Z,2.17
2024-02-02T10:10:56.010Z,1.30
2024-02-02T10:13:41.221Z,2.22
2024-02-02T10:16:37.376Z,1.58
2024-02-02T10:19:55.226Z,1.50
2024-02-02T10:22:42.521Z,2.40
2024-02-02T10:25:27.700Z,1.52
2024-02-02T10:28:32.201Z,1.98
2024-02-02T10:31:16.630Z,2.03
2024-02-02T10:33:59.033Z,2.10
2024-02-02T10:37:01.337Z,1.85
2024-02-02T10:40:02.234Z,2.75
2024-02-02T10:43:12.475Z,2.15
2024-02-02T10:45:50.667Z,1.55
2024-02-02T10:49:01.038Z,3.10
2024-02-02T10:51:37.903Z,1.95
2024-02-02T10:54:38.040Z,2.40
2024-02-02T10:57:32.472Z,2.17
2024-02-02T11:00:12.065Z,1.88
2024-02-02T11:03:07.646Z,1.80
2024-02-02T11:06:08.214Z,1.52
2024-02-02T11:08:43.308Z,2.90
2024-02-02T11:11:38.057Z,2.10
2024-02-02T11:14:34.785Z,1.60
2024-02-02T11:17:16.955Z,1.77
2024-02-02T11:20:27.436Z,1.90
2024-02-02T11:23:03.174Z,1.98
2024-02-02T11:25:40.891Z,1.90
2024-02-02T11:28:19.476Z,1.88
2024-02-02T11:30:59.171Z,1.90
2024-02-02T11:33:56.739Z,2.63
2024-02-02T11:37:01.888Z,2.35
2024-02-02T11:39:41.109Z,1.95
2024-02-02T11:42:16.238Z,2.15
2024-02-02T11:44:50.301Z,1.70
2024-02-02T11:47:22.044Z,1.98
2024-02-02T11:50:02.535Z,2.20
2024-02-02T11:52:34.235Z,3.00
2024-02-02T11:55:15.577Z,1.50
2024-02-02T11:57:49.627Z,2.70
2024-02-02T12:00:31.770Z,1.63
2024-02-02T12:03:31.046Z,3.28
2024-02-02T12:06:14.814Z,1.67
2024-02-02T12:09:16.025Z,2.30
2024-02-02T12:11:50.893Z,1.50
2024-02-02T12:14:46.932Z,1.80
2024-02-02T12:17:19.004Z,2.08
2024-02-02T12:19:52.465Z,2.25
2024-02-02T12:22:24.466Z,1.50
2024-02-02T12:25:15.103Z,2.13
2024-02-02T12:27:44.501Z,2.70
2024-02-02T12:30:14.412Z,1.90
2024-02-02T12:32:53.658Z,2.28
2024-02-02T12:35:43.558Z,2.17
2024-02-02T12:38:23.344Z,2.75
2024-02-02T12:41:11.554Z,2.70
2024-02-02T12:43:42.026Z,2.17
2024-02-02T12:46:46.346Z,2.80
2024-02-02T12:49:16.827Z,2.70
2024-02-02T12:52:05.254Z,2.00
2024-02-02T12:54:41.531Z,2.90
2024-02-02T12:57:11.552Z,2.10
2024-02-02T12:59:41.657Z,2.20
2024-02-02T13:02:15.139Z,2.10
2024-02-02T13:04:45.061Z,1.70
2024-02-02T13:07:33.536Z,1.73
2024-02-02T13:10:06.980Z,2.42
2024-02-02T13:12:41.001Z,2.70
2024-02-02T13:15:32.129Z,2.22
2024-02-02T13:18:04.016Z,2.50
2024-02-02T13:20:35.319Z,2.40
2024-02-02T13:23:26.510Z,2.08
2024-02-02T13:26:04.836Z,2.38
2024-02-02T13:28:40.524Z,1.98
2024-02-02T13:31:17.123Z,1.70
2024-02-02T13:34:06.041Z,2.15
2024-02-02T13:37:03.350Z,2.03
2024-02-02T13:39:54.590Z,2.45
2024-02-02T13:42:29.731Z,2.23
2024-02-02T13:45:18.631Z,2.45
2024-02-02T13:47:57.076Z,1.77
2024-02-02T13:50:39.415Z,2.30
2024-02-02T13:53:10.515Z,2.08
2024-02-02T13:55:59.017Z,2.15
2024-02-02T13:58:29.882Z,2.15
2024-02-02T14:01:00.057Z,1.95
2024-02-02T14:03:49.453Z,1.73
2024-02-02T14:06:20.968Z,2.13
2024-02-02T14:09:09.927Z,1.83
2024-02-02T14:11:39.752Z,2.50
2024-02-02T14:14:10.775Z,2.78
2024-02-02T14:16:41.124Z,3.13
2024-02-02T14:19:12.061Z,2.15
2024-02-02T14:21:41.670Z,2.00
2024-02-02T14:24:13.076Z,2.08
2024-02-02T14:26:50.062Z,2.45
2024-02-02T14:29:44.105Z,1.70
2024-02-02T14:32:14.041Z,2.35
2024-02-02T14:34:43.692Z,2.00
2024-02-02T14:37:16.126Z,2.17
2024-02-02T14:40:05.189Z,2.72
2024-02-02T14:42:35.069Z,2.33
2024-02-02T14:45:07.482Z,2.50
2024-02-02T14:47:37.456Z,3.08
2024-02-02T14:50:26.976Z,2.15
2024-02-02T14:53:15.041Z,3.00
2024-02-02T14:55:44.513Z,2.65
2024-02-02T14:58:15.038Z,3.38
2024-02-02T15:00:47.602Z,2.60
2024-02-02T15:03:36.047Z,3.22
2024-02-02T15:06:06.572Z,2.38
2024-02-02T15:08:55.192Z,3.42
2024-02-02T15:11:25.056Z,2.90
2024-02-02T15:13:54.940Z,2.50
2024-02-02T15:16:45.061Z,2.55
2024-02-02T15:19:32.800Z,2.88
2024-02-02T15:22:21.904Z,3.65
2024-02-02T15:24:51.839Z,3.30
2024-02-02T15:27:21.835Z,3.72
2024-02-02T15:29:51.443Z,3.20
2024-02-02T15:32:23.032Z,3.80
2024-02-02T15:34:53.150Z,4.03
2024-02-02T15:37:47.924Z,3.20
2024-02-02T15:40:18.610Z,2.75
2024-02-02T15:42:51.349Z,3.95
2024-02-02T15:45:40.250Z,4.63
2024-02-02T15:48:12.648Z,3.33
2024-02-02T15:51:01.328Z,3.35
2024-02-02T15:53:32.166Z,3.83
2024-02-02T15:56:22.359Z,3.55
2024-02-02T15:59:11.597Z,3.40
2024-02-02T16:02:01.108Z,3.25
2024-02-02T16:04:59.091Z,3.97
2024-02-02T16:07:30.130Z,3.60
2024-02-02T16:10:00.548Z,3.78
2024-02-02T16:12:43.707Z,5.00
2024-02-02T16:15:16.241Z,5.27
2024-02-02T16:18:07.050Z,4.97
2024-02-02T16:20:57.263Z,6.47
2024-02-02T16:23:27.543Z,5.80
2024-02-02T16:26:19.150Z,5.28
2024-02-02T16:28:57.669Z,4.78
2024-02-02T16:31:28.586Z,5.07
2024-02-02T16:34:17.549Z,4.65
2024-02-02T16:37:06.891Z,4.30
2024-02-02T16:39:43.409Z,4.55
2024-02-02T16:42:32.209Z,3.80
2024-02-02T16:45:02.625Z,3.45
2024-02-02T16:47:54.458Z,4.40
2024-02-02T16:50:26.381Z,4.45
2024-02-02T16:53:16.468Z,3.88
2024-02-02T16:55:46.378Z,3.80
2024-02-02T16:58:17.330Z,3.65
2024-02-02T17:00:48.549Z,3.67
2024-02-02T17:03:19.058Z,4.45
2024-02-02T17:06:10.587Z,3.78
2024-02-02T17:09:00.280Z,3.10
2024-02-02T17:11:49.764Z,3.95
2024-02-02T17:14:20.757Z,3.58
2024-02-02T17:17:09.083Z,3.00
2024-02-02T17:19:41.070Z,4.10
2024-02-02T17:22:16.922Z,3.90
2024-02-02T17:25:07.069Z,3.40
2024-02-02T17:27:56.514Z,3.85
2024-02-02T17:30:47.074Z,3.70
2024-02-02T17:33:35.472Z,3.83
2024-02-02T17:36:22.775Z,3.83
2024-02-02T17:38:53.831Z,3.92
2024-02-02T17:41:44.363Z,4.00
2024-02-02T17:44:32.262Z,3.88
2024-02-02T17:47:02.092Z,3.42
2024-02-02T17:49:41.362Z,3.35
2024-02-02T17:52:18.255Z,4.07
2024-02-02T17:54:48.356Z,4.07
2024-02-02T17:57:38.012Z,3.78
2024-02-02T18:00:09.137Z,4.00
2024-02-02T18:03:00.214Z,3.75
2024-02-02T18:05:30.451Z,3.63
2024-02-02T18:08:03.592Z,3.38
2024-02-02T18:10:34.933Z,3.88
2024-02-02T18:13:24.510Z,3.10
2024-02-02T18:15:55.392Z,3.83
2024-02-02T18:18:27.454Z,3.88
2024-02-02T18:20:58.021Z,4.13
2024-02-02T18:23:46.148Z,3.42
2024-02-02T18:26:16.853Z,3.78
2024-02-02T18:29:06.598Z,3.20
2024-02-02T18:31:51.597Z,3.50
2024-02-02T18:34:38.832Z,3.95
2024-02-02T18:37:35.099Z,3.65
2024-02-02T18:40:05.629Z,4.05
2024-02-02T18:42:56.600Z,3.38
2024-02-02T18:45:49.114Z,3.30
2024-02-02T18:48:40.339Z,3.63
2024-02-02T18:51:17.840Z,4.00
2024-02-02T18:54:08.687Z,3.45
2024-02-02T18:56:56.573Z,5.13
2024-02-02T18:59:45.189Z,4.18
2024-02-02T19:02:35.491Z,3.90
2024-02-02T19:05:05.715Z,4.10
2024-02-02T19:07:54.298Z,4.80
2024-02-02T19:10:44.793Z,4.18
2024-02-02T19:13:16.127Z,4.65
2024-02-02T19:15:46.007Z,4.80
2024-02-02T19:18:18.441Z,4.97
2024-02-02T19:20:48.757Z,4.15
2024-02-02T19:23:37.495Z,3.88
2024-02-02T19:26:08.078Z,4.00
2024-02-02T19:28:56.138Z,4.75
2024-02-02T19:31:44.131Z,4.07
2024-02-02T19:34:18.416Z,3.95
2024-02-02T19:36:48.631Z,4.65
2024-02-02T19:39:18.977Z,4.03
2024-02-02T19:42:07.644Z,4.57
2024-02-02T19:44:37.795Z,5.78
2024-02-02T19:47:08.115Z,5.32
2024-02-02T19:49:41.042Z,4.60
2024-02-02T19:52:11.099Z,4.60
2024-02-02T19:55:03.372Z,5.05
2024-02-02T19:58:02.878Z,4.35
2024-02-02T20:00:50.157Z,4.63
2024-02-02T20:03:25.830Z,5.10
2024-02-02T20:06:08.878Z,4.75
2024-02-02T20:08:41.127Z,4.53
2024-02-02T20:11:14.690Z,4.65
2024-02-02T20:13:45.359Z,4.85
2024-02-02T20:16:16.643Z,4.88
2024-02-02T20:18:48.500Z,4.22
2024-02-02T20:21:21.527Z,4.47
2024-02-02T20:24:12.354Z,4.43
2024-02-02T20:26:45.209Z,3.40
2024-02-02T20:29:17.895Z,4.00
2024-02-02T20:31:51.669Z,2.78
2024-02-02T20:34:21.719Z,4.15
2024-02-02T20:36:55.228Z,3.53
2024-02-02T20:39:25.208Z,4.47
2024-02-02T20:42:13.568Z,2.97
2024-02-02T20:45:04.574Z,3.03
2024-02-02T20:47:53.862Z,3.50
2024-02-02T20:50:24.531Z,3.45
2024-02-02T20:53:14.268Z,3.40
2024-02-02T20:55:44.047Z,2.78
2024-02-02T20:58:13.624Z,3.25
2024-02-02T21:00:43.477Z,3.72
2024-02-02T21:03:14.317Z,3.47
2024-02-02T21:05:44.247Z,3.75
2024-02-02T21:08:33.623Z,3.75
2024-02-02T21:11:02.920Z,3.25
2024-02-02T21:13:32.819Z,3.40
2024-02-02T21:16:21.236Z,2.80
2024-02-02T21:18:56.440Z,3.28
2024-02-02T21:21:26.359Z,4.70
2024-02-02T21:23:57.322Z,4.00
2024-02-02T21:26:30.551Z,3.28
2024-02-02T21:29:18.560Z,3.33
2024-02-02T21:32:08.236Z,3.60
2024-02-02T21:34:38.712Z,4.50
2024-02-02T21:37:08.283Z,3.35
2024-02-02T21:39:41.393Z,3.72
2024-02-02T21:42:29.791Z,4.78
2024-02-02T21:44:59.549Z,3.45
2024-02-02T21:47:29.250Z,4.82
2024-02-02T21:50:17.771Z,3.15
2024-02-02T21:53:06.320Z,3.22
2024-02-02T21:55:37.441Z,4.10
2024-02-02T21:58:08.841Z,4.05
2024-02-02T22:00:39.023Z,3.28
2024-02-02T22:03:09.496Z,2.97
2024-02-02T22:05:57.566Z,3.17
2024-02-02T22:08:26.836Z,3.13
2024-02-02T22:11:16.862Z,3.80
2024-02-02T22:13:48.275Z,3.47
2024-02-02T22:16:18.162Z,3.72
2024-02-02T22:18:50.406Z,3.35
2024-02-02T22:21:38.620Z,3.88
2024-02-02T22:24:08.841Z,3.85
2024-02-02T22:26:40.197Z,3.33
2024-02-02T22:29:10.298Z,4.60
2024-02-02T22:31:41.390Z,3.40
2024-02-02T22:34:11.424Z,3.67
2024-02-02T22:36:59.447Z,3.75
2024-02-02T22:39:47.774Z,4.80
2024-02-02T22:42:38.962Z,4.43
2024-02-02T22:45:09.834Z,4.60
2024-02-02T22:47:58.841Z,3.55
2024-02-02T22:50:28.267Z,5.13
2024-02-02T22:52:57.866Z,4.25
2024-02-02T22:55:27.561Z,4.03
2024-02-02T22:57:58.558Z,4.68
2024-02-02T23:00:49.207Z,3.90
2024-02-02T23:03:19.372Z,4.15
2024-02-02T23:05:49.302Z,4.30
2024-02-02T23:08:37.303Z,4.25
2024-02-02T23:11:25.340Z,3.95
2024-02-02T23:13:55.998Z,4.63
2024-02-02T23:16:25.784Z,4.15
2024-02-02T23:19:13.856Z,5.03
2024-02-02T23:21:43.571Z,3.95
2024-02-02T23:24:32.041Z,4.07
2024-02-02T23:27:01.816Z,4.00
2024-02-02T23:29:51.459Z,4.40
2024-02-02T23:32:40.475Z,5.15
2024-02-02T23:35:28.568Z,3.85
2024-02-02T23:38:16.733Z,4.40
2024-02-02T23:40:46.554Z,4.47
2024-02-02T23:43:16.096Z,4.85
2024-02-02T23:45:46.829Z,4.47
2024-02-02T23:48:35.275Z,5.13
2024-02-02T23:51:06.001Z,4.65
2024-02-02T23:53:36.525Z,5.30
2024-02-02T23:56:07.120Z,4.65
2024-02-02T23:58:36.676Z,4.60
